createdAt,value
2023-04-15T00:00:19.054Z,9.50
2023-04-15T00:03:42.321Z,9.80
2023-04-15T00:06:52.965Z,9.70
2023-04-15T00:09:57.859Z,9.90
2023-04-15T00:13:01.935Z,9.10
2023-04-15T00:16:05.478Z,9.80
2023-04-15T00:19:08.456Z,9.70
2023-04-15T00:22:12.222Z,9.40
2023-04-15T00:25:15.460Z,9.10
2023-04-15T00:28:18.529Z,9.70
2023-04-15T00:31:21.900Z,9.40
2023-04-15T00:34:24.859Z,10.20
2023-04-15T00:37:27.625Z,9.50
2023-04-15T00:40:30.786Z,9.50
2023-04-15T00:43:33.561Z,9.20
2023-04-15T00:46:38.430Z,10.10
2023-04-15T00:49:41.513Z,9.10
2023-04-15T00:52:44.278Z,9.50
2023-04-15T00:55:47.069Z,10.00
2023-04-15T00:58:51.501Z,9.10
2023-04-15T01:01:54.356Z,9.30
2023-04-15T01:04:57.217Z,9.50
2023-04-15T01:08:00.329Z,9.20
2023-04-15T01:11:03.754Z,9.70
2023-04-15T01:14:07.447Z,9.10
2023-04-15T01:17:10.309Z,10.80
2023-04-15T01:20:13.386Z,10.20
2023-04-15T01:23:17.440Z,9.30
2023-04-15T01:26:20.405Z,9.90
2023-04-15T01:29:23.273Z,10.10
2023-04-15T01:32:27.295Z,10.40
2023-04-15T01:35:30.147Z,11.10
2023-04-15T01:38:33.453Z,10.60
2023-04-15T01:41:36.459Z,11.00
2023-04-15T01:44:39.173Z,9.40
2023-04-15T01:47:42.094Z,10.30
2023-04-15T01:50:46.440Z,11.10
2023-04-15T01:53:51.053Z,11.40
2023-04-15T01:56:53.955Z,10.90
2023-04-15T01:59:56.666Z,12.40
2023-04-15T02:02:59.742Z,13.40
2023-04-15T02:06:02.516Z,13.20
2023-04-15T02:09:05.286Z,11.90
2023-04-15T02:12:08.056Z,11.20
2023-04-15T02:15:11.249Z,11.70
2023-04-15T02:18:14.021Z,11.30
2023-04-15T02:21:16.895Z,11.70
2023-04-15T02:24:19.688Z,13.10
2023-04-15T02:27:22.609Z,12.00
2023-04-15T02:30:27.186Z,12.40
2023-04-15T02:33:30.074Z,13.40
2023-04-15T02:36:34.579Z,12.90
2023-04-15T02:39:37.997Z,13.00
2023-04-15T02:42:41.932Z,13.00
2023-04-15T02:45:47.357Z,12.60
2023-04-15T02:48:51.022Z,13.50
2023-04-15T02:51:53.955Z,13.30
2023-04-15T02:55:00.585Z,14.10
2023-04-15T02:58:03.407Z,15.10
2023-04-15T03:01:07.564Z,12.30
2023-04-15T03:04:10.567Z,13.80
2023-04-15T03:07:13.378Z,13.10
2023-04-15T03:10:16.080Z,12.70
2023-04-15T03:13:19.418Z,13.90
2023-04-15T03:16:23.049Z,13.20
2023-04-15T03:19:26.100Z,13.10
2023-04-15T03:22:28.871Z,13.50
2023-04-15T03:25:31.756Z,14.00
2023-04-15T03:28:36.037Z,13.00
2023-04-15T03:31:38.932Z,14.10
2023-04-15T03:34:42.308Z,14.10
2023-04-15T03:37:45.153Z,12.10
2023-04-15T03:40:47.901Z,12.70
2023-04-15T03:43:52.150Z,12.80
2023-04-15T03:46:54.911Z,12.20
2023-04-15T03:49:57.704Z,10.90
2023-04-15T03:53:00.751Z,13.20
2023-04-15T03:56:03.595Z,13.50
2023-04-15T03:59:06.753Z,13.30
2023-04-15T04:02:09.505Z,12.00
2023-04-15T04:05:12.279Z,13.40
2023-04-15T04:08:16.321Z,12.70
2023-04-15T04:11:19.092Z,12.50
2023-04-15T04:14:26.585Z,12.20
2023-04-15T04:17:29.294Z,12.30
2023-04-15T04:20:32.167Z,12.80
2023-04-15T04:23:34.963Z,11.80
2023-04-15T04:26:37.790Z,12.60
2023-04-15T04:29:40.524Z,11.20
2023-04-15T04:32:43.365Z,13.00
2023-04-15T04:35:46.322Z,13.40
2023-04-15T04:38:49.144Z,12.40
2023-04-15T04:41:54.869Z,11.50
2023-04-15T04:44:57.571Z,11.60
2023-04-15T04:48:00.644Z,11.60
2023-04-15T04:51:03.837Z,10.60
2023-04-15T04:54:06.612Z,10.60
2023-04-15T04:57:09.363Z,11.20
2023-04-15T05:00:12.634Z,9.60
2023-04-15T05:03:15.748Z,9.90
2023-04-15T05:06:18.600Z,10.50
2023-04-15T05:09:21.359Z,9.60
2023-04-15T05:12:24.144Z,9.70
2023-04-15T05:15:26.915Z,11.10
2023-04-15T05:18:29.934Z,10.40
2023-04-15T05:21:32.784Z,11.40
2023-04-15T05:24:35.607Z,10.60
2023-04-15T05:27:38.430Z,11.50
2023-04-15T05:30:41.284Z,10.90
2023-04-15T05:33:44.170Z,9.80
2023-04-15T05:36:46.975Z,10.40
2023-04-15T05:39:49.781Z,10.50
2023-04-15T05:42:52.535Z,10.30
2023-04-15T05:45:55.271Z,10.30
2023-04-15T05:48:58.150Z,10.10
2023-04-15T05:52:00.966Z,11.90
2023-04-15T05:55:03.821Z,12.10
2023-04-15T05:58:06.501Z,10.40
2023-04-15T06:01:09.354Z,11.60
2023-04-15T06:04:12.287Z,11.80
2023-04-15T06:07:15.551Z,12.10
2023-04-15T06:10:18.346Z,13.00
2023-04-15T06:13:21.313Z,12.40
2023-04-15T06:16:24.177Z,11.70
2023-04-15T06:19:26.931Z,12.80
2023-04-15T06:22:29.682Z,12.00
2023-04-15T06:25:32.412Z,13.10
2023-04-15T06:28:35.342Z,12.50
2023-04-15T06:31:38.118Z,12.50
2023-04-15T06:34:40.868Z,11.90
2023-04-15T06:37:43.567Z,12.90
2023-04-15T06:40:46.409Z,11.50
2023-04-15T06:43:49.245Z,11.90
2023-04-15T06:46:52.079Z,12.30
2023-04-15T06:49:54.914Z,11.70
2023-04-15T06:52:57.706Z,10.80
2023-04-15T06:56:00.601Z,10.90
2023-04-15T06:59:03.747Z,10.50
2023-04-15T07:02:12.425Z,11.80
2023-04-15T07:05:15.629Z,11.40
2023-04-15T07:08:19.954Z,12.10
2023-04-15T07:11:22.739Z,12.40
2023-04-15T07:14:25.557Z,11.90
2023-04-15T07:17:28.292Z,12.90
2023-04-15T07:20:31.162Z,12.90
2023-04-15T07:23:33.922Z,13.10
2023-04-15T07:26:36.632Z,13.40
2023-04-15T07:29:39.374Z,12.80
2023-04-15T07:32:42.581Z,12.40
2023-04-15T07:35:46.124Z,11.10
2023-04-15T07:38:49.072Z,12.20
2023-04-15T07:41:51.891Z,12.50
2023-04-15T07:44:54.771Z,13.90
2023-04-15T07:47:57.969Z,11.30
2023-04-15T07:51:00.892Z,12.60
2023-04-15T07:54:04.257Z,13.00
2023-04-15T07:57:07.959Z,12.50
2023-04-15T08:00:11.480Z,13.40
2023-04-15T08:03:17.392Z,13.50
2023-04-15T08:06:20.129Z,12.50
2023-04-15T08:13:13.049Z,12.70
2023-04-15T08:16:21.666Z,13.10
2023-04-15T08:22:53.798Z,14.10
2023-04-15T08:25:57.270Z,13.20
2023-04-15T08:29:00.212Z,17.20
2023-04-15T08:32:03.391Z,13.80
2023-04-15T08:35:06.600Z,15.10
2023-04-15T08:38:09.367Z,44.60
2023-04-15T08:41:17.584Z,30.10
2023-04-15T08:44:21.710Z,12.50
2023-04-15T08:47:29.918Z,12.10
2023-04-15T08:50:33.202Z,11.40
2023-04-15T08:53:36.173Z,10.40
2023-04-15T08:56:39.418Z,13.80
2023-04-15T08:59:43.579Z,13.20
2023-04-15T09:02:46.840Z,15.90
2023-04-15T09:05:51.456Z,16.00
2023-04-15T09:08:56.272Z,15.20
2023-04-15T09:11:59.211Z,16.80
2023-04-15T09:15:03.238Z,18.70
2023-04-15T09:18:07.036Z,17.80
2023-04-15T09:21:11.488Z,16.20
2023-04-15T09:24:14.523Z,13.00
2023-04-15T09:27:17.404Z,12.40
2023-04-15T09:30:21.443Z,12.70
2023-04-15T09:33:26.253Z,11.70
2023-04-15T09:36:31.733Z,12.90
2023-04-15T09:39:48.663Z,14.40
2023-04-15T09:42:57.998Z,12.50
2023-04-15T09:46:00.797Z,12.80
2023-04-15T09:49:11.344Z,12.80
2023-04-15T09:52:14.443Z,14.00
2023-04-15T09:55:18.301Z,13.10
2023-04-15T09:58:23.591Z,13.50
2023-04-15T10:01:27.069Z,14.90
2023-04-15T10:04:31.161Z,16.90
2023-04-15T10:07:35.214Z,15.50
2023-04-15T10:10:37.989Z,13.90
2023-04-15T10:13:41.679Z,12.10
2023-04-15T10:16:49.126Z,15.50
2023-04-15T10:19:54.297Z,10.60
2023-04-15T10:22:57.864Z,12.10
2023-04-15T10:26:02.306Z,12.20
2023-04-15T10:29:05.649Z,13.30
2023-04-15T10:32:09.654Z,11.30
2023-04-15T10:35:13.229Z,13.00
2023-04-15T10:38:33.733Z,10.90
2023-04-15T10:41:37.850Z,12.00
2023-04-15T10:44:44.009Z,12.40
2023-04-15T10:47:49.671Z,12.60
2023-04-15T10:51:02.683Z,11.80
2023-04-15T10:54:10.520Z,11.60
2023-04-15T10:57:24.184Z,11.60
2023-04-15T11:00:30.070Z,11.50
2023-04-15T11:03:42.668Z,12.70
2023-04-15T11:06:45.935Z,12.80
2023-04-15T11:09:48.668Z,13.70
2023-04-15T11:12:58.502Z,11.50
2023-04-15T11:16:02.615Z,12.20
2023-04-15T11:19:05.961Z,11.00
2023-04-15T11:22:10.288Z,14.60
2023-04-15T11:25:23.229Z,12.80
2023-04-15T11:28:29.379Z,12.30
2023-04-15T11:31:33.418Z,12.30
2023-04-15T11:34:36.408Z,11.70
2023-04-15T11:37:39.356Z,10.90
2023-04-15T11:40:45.264Z,11.30
2023-04-15T11:43:50.737Z,11.10
2023-04-15T11:46:55.428Z,10.20
2023-04-15T11:50:23.068Z,10.60
2023-04-15T11:53:37.212Z,8.10
2023-04-15T11:56:40.097Z,8.80
2023-04-15T11:59:45.832Z,8.00
2023-04-15T12:02:49.173Z,7.40
2023-04-15T12:06:16.757Z,6.60
2023-04-15T12:09:21.715Z,7.60
2023-04-15T12:12:30.961Z,7.50
2023-04-15T12:15:33.765Z,6.60
2023-04-15T12:18:38.695Z,6.10
2023-04-15T12:21:45.480Z,5.10
2023-04-15T12:27:57.053Z,6.70
2023-04-15T12:30:59.866Z,6.20
2023-04-15T12:34:04.453Z,6.10
2023-04-15T12:37:09.930Z,3.80
2023-04-15T12:40:13.772Z,4.70
2023-04-15T12:43:16.860Z,7.00
2023-04-15T12:46:20.318Z,4.90
2023-04-15T12:49:24.596Z,5.00
2023-04-15T12:52:27.470Z,4.80
2023-04-15T12:55:30.689Z,3.50
2023-04-15T12:58:33.534Z,4.20
2023-04-15T13:01:36.399Z,3.50
2023-04-15T13:04:39.281Z,4.80
2023-04-15T13:07:42.510Z,29.70
2023-04-15T13:10:45.457Z,10.00
2023-04-15T13:13:48.599Z,6.10
2023-04-15T13:16:51.306Z,23.30
2023-04-15T13:19:54.359Z,8.20
2023-04-15T13:22:57.335Z,11.60
2023-04-15T13:26:00.118Z,7.80
2023-04-15T13:29:02.892Z,8.50
2023-04-15T13:32:06.527Z,17.90
2023-04-15T13:35:10.791Z,6.00
2023-04-15T13:38:13.575Z,13.00
2023-04-15T13:41:16.406Z,14.80
2023-04-15T13:44:21.534Z,10.30
2023-04-15T13:47:25.263Z,7.30
2023-04-15T13:50:28.628Z,6.00
2023-04-15T13:53:38.352Z,6.00
2023-04-15T13:56:42.378Z,7.80
2023-04-15T13:59:45.446Z,7.00
2023-04-15T14:02:48.397Z,6.10
2023-04-15T14:05:55.900Z,7.00
2023-04-15T14:08:58.633Z,5.90
2023-04-15T14:12:03.292Z,4.70
2023-04-15T14:15:06.574Z,5.40
2023-04-15T14:18:09.477Z,8.30
2023-04-15T14:21:12.610Z,5.80
2023-04-15T14:24:15.917Z,6.70
2023-04-15T14:27:21.153Z,6.00
2023-04-15T14:30:23.905Z,7.10
2023-04-15T14:33:28.188Z,8.80
2023-04-15T14:36:32.040Z,11.30
2023-04-15T14:39:35.578Z,8.70
2023-04-15T14:42:38.352Z,7.90
2023-04-15T14:45:43.713Z,9.70
2023-04-15T14:48:48.221Z,6.00
2023-04-15T14:51:51.411Z,4.90
2023-04-15T14:54:56.836Z,5.30
2023-04-15T14:58:00.241Z,5.10
2023-04-15T15:01:03.926Z,4.70
2023-04-15T15:04:07.048Z,5.90
2023-04-15T15:07:10.122Z,6.80
2023-04-15T15:10:15.560Z,6.50
2023-04-15T15:13:19.587Z,5.90
2023-04-15T15:16:22.445Z,5.60
2023-04-15T15:19:28.482Z,5.20
2023-04-15T15:22:31.244Z,4.60
2023-04-15T15:25:34.017Z,4.50
2023-04-15T15:28:37.425Z,5.80
2023-04-15T15:31:40.585Z,6.80
2023-04-15T15:34:43.376Z,8.60
2023-04-15T15:37:46.283Z,9.60
2023-04-15T15:40:48.994Z,9.20
2023-04-15T15:43:53.076Z,9.20
2023-04-15T15:46:56.181Z,9.70
2023-04-15T15:50:00.672Z,10.30
2023-04-15T15:53:03.454Z,9.30
2023-04-15T15:56:06.694Z,9.10
2023-04-15T15:59:11.773Z,7.10
2023-04-15T16:02:14.627Z,8.60
2023-04-15T16:05:18.156Z,7.60
2023-04-15T16:08:21.064Z,6.50
2023-04-15T16:11:24.071Z,6.90
2023-04-15T16:14:27.041Z,7.70
2023-04-15T16:17:29.801Z,7.70
2023-04-15T16:20:32.579Z,7.60
2023-04-15T16:23:37.245Z,8.30
2023-04-15T16:26:41.411Z,9.10
2023-04-15T16:29:48.089Z,19.20
2023-04-15T16:32:51.626Z,10.80
2023-04-15T16:35:54.368Z,16.20
2023-04-15T16:38:57.125Z,23.00
2023-04-15T16:42:00.434Z,19.80
2023-04-15T16:45:03.503Z,16.30
2023-04-15T16:48:06.894Z,16.00
2023-04-15T16:51:09.949Z,15.90
2023-04-15T16:54:13.008Z,16.50
2023-04-15T16:57:15.887Z,12.10
2023-04-15T17:00:18.648Z,11.50
2023-04-15T17:03:21.576Z,11.90
2023-04-15T17:06:25.330Z,11.90
2023-04-15T17:09:28.570Z,12.30
2023-04-15T17:12:31.794Z,12.20
2023-04-15T17:15:34.574Z,11.70
2023-04-15T17:18:38.871Z,11.40
2023-04-15T17:21:45.351Z,12.80
2023-04-15T17:24:49.076Z,11.50
2023-04-15T17:27:52.378Z,12.90
2023-04-15T17:30:55.792Z,14.40
2023-04-15T17:34:06.410Z,15.00
2023-04-15T17:37:12.939Z,14.20
2023-04-15T17:40:16.087Z,12.10
2023-04-15T17:43:19.371Z,10.50
2023-04-15T17:46:23.445Z,6.90
2023-04-15T17:49:38.170Z,5.20
2023-04-15T17:52:46.465Z,3.90
2023-04-15T17:55:50.365Z,2.70
2023-04-15T17:58:54.128Z,5.10
2023-04-15T18:01:58.632Z,11.60
2023-04-15T18:05:04.675Z,18.10
2023-04-15T18:08:08.592Z,9.30
2023-04-15T18:11:12.534Z,6.90
2023-04-15T18:14:31.121Z,6.20
2023-04-15T18:18:02.972Z,11.20
2023-04-15T18:21:06.914Z,5.80
2023-04-15T18:24:09.951Z,4.60
2023-04-15T18:27:12.653Z,25.60
2023-04-15T18:30:18.392Z,13.50
2023-04-15T18:33:24.648Z,24.70
2023-04-15T18:36:27.505Z,20.00
2023-04-15T18:39:31.158Z,7.90
2023-04-15T18:42:33.997Z,7.60
2023-04-15T18:45:37.541Z,6.60
2023-04-15T18:48:44.897Z,6.10
2023-04-15T18:51:49.044Z,13.50
2023-04-15T18:54:52.129Z,10.50
2023-04-15T18:57:56.866Z,7.90
2023-04-15T19:01:11.938Z,5.20
2023-04-15T19:04:16.498Z,10.40
2023-04-15T19:07:21.230Z,4.80
2023-04-15T19:10:24.795Z,3.20
2023-04-15T19:13:35.804Z,4.00
2023-04-15T19:16:39.066Z,8.10
2023-04-15T19:19:45.180Z,7.70
2023-04-15T19:22:48.380Z,24.00
2023-04-15T19:25:52.039Z,22.00
2023-04-15T19:28:56.514Z,13.40
2023-04-15T19:32:01.479Z,23.90
2023-04-15T19:35:05.416Z,18.30
2023-04-15T19:38:08.770Z,55.50
2023-04-15T19:41:14.580Z,111.90
2023-04-15T19:44:18.038Z,71.40
2023-04-15T19:47:25.840Z,44.50
2023-04-15T19:50:32.289Z,58.30
2023-04-15T19:53:37.497Z,18.40
2023-04-15T19:56:40.425Z,40.40
2023-04-15T19:59:44.320Z,31.30
2023-04-15T20:02:58.541Z,21.20
2023-04-15T20:06:03.589Z,19.50
2023-04-15T20:09:11.301Z,9.90
2023-04-15T20:12:50.811Z,6.70
2023-04-15T20:15:43.031Z,8.90
2023-04-15T20:18:47.189Z,4.70
2023-04-15T20:21:52.062Z,4.20
2023-04-15T20:24:56.151Z,3.00
2023-04-15T20:28:00.953Z,3.30
2023-04-15T20:31:04.034Z,3.70
2023-04-15T20:34:16.386Z,6.30
2023-04-15T20:37:19.161Z,4.90
2023-04-15T20:40:25.251Z,5.40
2023-04-15T20:43:30.735Z,5.70
2023-04-15T20:46:33.920Z,6.70
2023-04-15T20:49:38.804Z,6.60
2023-04-15T20:52:41.616Z,6.90
2023-04-15T20:55:47.248Z,7.50
2023-04-15T20:58:51.471Z,8.20
2023-04-15T21:02:00.325Z,8.30
2023-04-15T21:05:05.389Z,8.90
2023-04-15T21:08:11.120Z,9.60
2023-04-15T21:11:25.664Z,8.20
2023-04-15T21:14:39.570Z,8.20
2023-04-15T21:17:42.351Z,9.40
2023-04-15T21:20:45.220Z,9.80
2023-04-15T21:23:47.973Z,9.30
2023-04-15T21:26:50.701Z,9.20
2023-04-15T21:29:53.473Z,8.40
2023-04-15T21:32:56.199Z,8.30
2023-04-15T21:36:01.228Z,7.70
2023-04-15T21:39:04.933Z,6.30
2023-04-15T21:42:08.302Z,8.60
2023-04-15T21:45:11.546Z,8.40
2023-04-15T21:48:14.318Z,8.00
2023-04-15T21:51:17.091Z,8.20
2023-04-15T21:54:19.871Z,7.50
2023-04-15T21:57:22.611Z,7.00
2023-04-15T22:00:25.390Z,6.60
2023-04-15T22:03:33.905Z,7.00
2023-04-15T22:06:37.120Z,6.60
2023-04-15T22:09:40.098Z,6.70
2023-04-15T22:12:42.934Z,7.10
2023-04-15T22:15:45.671Z,7.30
2023-04-15T22:18:48.807Z,7.20
2023-04-15T22:21:51.974Z,7.40
2023-04-15T22:24:54.794Z,7.40
2023-04-15T22:27:57.597Z,7.80
2023-04-15T22:31:00.632Z,7.40
2023-04-15T22:34:03.450Z,7.80
2023-04-15T22:37:06.518Z,8.10
2023-04-15T22:40:09.850Z,7.40
2023-04-15T22:43:12.599Z,7.50
2023-04-15T22:46:16.555Z,6.80
2023-04-15T22:49:19.399Z,7.00
2023-04-15T22:52:29.899Z,7.50
2023-04-15T22:55:33.689Z,8.40
2023-04-15T22:58:36.408Z,9.60
2023-04-15T23:01:39.374Z,9.90
2023-04-15T23:04:42.324Z,8.90
2023-04-15T23:07:45.131Z,8.40
2023-04-15T23:10:47.897Z,9.70
2023-04-15T23:13:50.768Z,9.80
2023-04-15T23:16:54.465Z,10.60
2023-04-15T23:19:57.174Z,13.10
2023-04-15T23:22:59.919Z,12.60
2023-04-15T23:26:04.005Z,12.10
2023-04-15T23:29:08.256Z,13.30
2023-04-15T23:32:11.080Z,12.80
2023-04-15T23:35:13.886Z,13.30
2023-04-15T23:38:16.724Z,12.00
2023-04-15T23:41:19.618Z,14.20
2023-04-15T23:44:22.663Z,15.10
2023-04-15T23:47:25.504Z,14.10
2023-04-15T23:50:28.459Z,15.20
2023-04-15T23:53:31.325Z,16.50
2023-04-15T23:56:34.129Z,15.00
2023-04-15T23:59:36.880Z,15.90
